Time;durP1;ratioP1;P1;durP2;ratioP2;P2;SDS_P1;SDS_P2;PMS_P1;PMS_P2;Temp;Humidity;BMP_temperature;BMP_pressure;BME280_temperature;BME280_humidity;BME280_pressure;Samples;Min_cycle;Max_cycle;Signal;HPM_P1;HPM_P2
2022/06/12 00:00:56;;;;;;;6.30;5.80;;;16.80;23.80;;;;;;4992389;28;20457;-69
2022/06/12 00:03:25;;;;;;;4.97;4.57;;;16.80;24.40;;;;;;4992354;28;20208;-68
2022/06/12 00:05:53;;;;;;;6.13;5.73;;;16.80;24.50;;;;;;4992570;28;20418;-68
2022/06/12 00:08:19;;;;;;;5.60;5.00;;;16.80;24.50;;;;;;4992043;28;20411;-67
2022/06/12 00:10:47;;;;;;;5.73;5.00;;;16.80;24.40;;;;;;4992206;28;20502;-68
2022/06/12 00:13:15;;;;;;;4.67;4.23;;;16.70;24.60;;;;;;4992394;28;20435;-68
2022/06/12 00:15:41;;;;;;;4.37;3.97;;;16.50;24.90;;;;;;4992255;28;20504;-68
2022/06/12 00:18:08;;;;;;;5.53;5.00;;;16.60;25.30;;;;;;4991847;28;20849;-68
2022/06/12 00:20:34;;;;;;;5.37;4.87;;;16.50;25.30;;;;;;4992035;28;20459;-67
2022/06/12 00:22:59;;;;;;;5.83;5.33;;;16.50;25.20;;;;;;4992224;28;20789;-67
2022/06/12 00:25:28;;;;;;;5.47;5.00;;;16.50;25.50;;;;;;4992075;28;20421;-68
2022/06/12 00:27:55;;;;;;;5.33;4.93;;;16.40;25.60;;;;;;4991851;28;20236;-69
2022/06/12 00:30:23;;;;;;;6.83;6.23;;;16.40;25.70;;;;;;4991915;28;20515;-68
2022/06/12 00:32:52;;;;;;;5.97;5.57;;;16.30;26.70;;;;;;4991850;28;20548;-67
2022/06/12 00:35:25;;;;;;;6.00;5.10;;;16.30;25.80;;;;;;4991878;28;20413;-68
2022/06/12 00:37:51;;;;;;;6.50;5.23;;;16.20;25.90;;;;;;4991898;28;20492;-67
2022/06/12 00:40:17;;;;;;;6.67;5.63;;;16.10;26.30;;;;;;4991194;28;20453;-68
2022/06/12 00:42:51;;;;;;;5.40;4.90;;;16.00;26.70;;;;;;4991864;28;20206;-67
2022/06/12 00:45:38;;;;;;;4.80;4.03;;;16.00;26.70;;;;;;4992051;28;20406;-68
2022/06/12 00:48:12;;;;;;;5.30;4.70;;;16.00;26.70;;;;;;4991576;28;20415;-68
2022/06/12 00:50:42;;;;;;;7.70;4.40;;;16.00;26.70;;;;;;4992146;28;20421;-68
2022/06/12 00:53:13;;;;;;;4.60;3.87;;;15.90;26.60;;;;;;4991720;28;20830;-68
2022/06/12 00:55:45;;;;;;;6.40;4.20;;;15.90;26.60;;;;;;4991661;28;20449;-68
2022/06/12 00:58:16;;;;;;;4.40;4.00;;;15.80;26.90;;;;;;4991339;28;20460;-69
2022/06/12 01:00:42;;;;;;;5.20;4.70;;;15.80;27.10;;;;;;4991647;28;20430;-68
2022/06/12 01:03:09;;;;;;;7.37;3.37;;;15.70;27.50;;;;;;4991513;28;20440;-67
2022/06/12 01:08:21;;;;;;;3.77;3.37;;;15.70;27.50;;;;;;4991311;28;20441;-69
2022/06/12 01:10:50;;;;;;;4.67;4.27;;;15.70;27.50;;;;;;4991714;28;20418;-68
2022/06/12 01:13:25;;;;;;;4.47;3.37;;;15.70;27.70;;;;;;4991525;28;20813;-68
2022/06/12 01:15:55;;;;;;;6.97;3.93;;;15.60;27.60;;;;;;4991806;28;20441;-68
2022/06/12 01:18:24;;;;;;;4.60;4.13;;;15.60;27.60;;;;;;4990995;28;20556;-68
2022/06/12 01:20:59;;;;;;;7.50;6.60;;;15.50;28.10;;;;;;4991395;28;20503;-69
2022/06/12 01:23:55;;;;;;;6.13;4.87;;;15.50;28.40;;;;;;4991444;28;20469;-67
2022/06/12 01:26:35;;;;;;;6.00;5.43;;;15.40;28.30;;;;;;4991290;28;20924;-68
2022/06/12 01:29:18;;;;;;;6.70;6.03;;;15.40;28.60;;;;;;4991068;28;20892;-68
2022/06/12 01:31:59;;;;;;;6.07;4.93;;;15.40;28.70;;;;;;4991042;28;20404;-69
2022/06/12 01:34:28;;;;;;;8.43;4.53;;;15.30;28.90;;;;;;4991142;28;20423;-67
2022/06/12 01:37:18;;;;;;;5.93;5.43;;;15.30;28.90;;;;;;4990909;28;20413;-69
2022/06/12 01:39:57;;;;;;;6.40;5.63;;;15.20;29.10;;;;;;4990699;28;20401;-68
2022/06/12 01:42:46;;;;;;;4.53;4.10;;;15.20;29.20;;;;;;4990926;28;20467;-68
2022/06/12 01:46:04;;;;;;;5.50;5.00;;;15.10;29.30;;;;;;4990902;28;20421;-68
2022/06/12 01:48:58;;;;;;;4.97;4.43;;;15.20;29.30;;;;;;4937488;28;20423;-68
2022/06/12 01:51:28;;;;;;;5.77;4.40;;;15.10;29.30;;;;;;4989839;28;20919;-68
2022/06/12 01:54:05;;;;;;;5.77;4.33;;;15.10;29.80;;;;;;4990638;28;20443;-69
2022/06/12 01:56:44;;;;;;;5.77;4.10;;;15.10;29.60;;;;;;4989470;28;20785;-67
2022/06/12 01:59:17;;;;;;;5.50;4.00;;;15.10;29.50;;;;;;4990317;28;20463;-67
2022/06/12 02:02:00;;;;;;;3.50;3.20;;;15.10;29.40;;;;;;4990565;28;20408;-68
2022/06/12 02:04:55;;;;;;;4.70;4.20;;;15.10;29.40;;;;;;4990554;28;20419;-67
2022/06/12 02:07:34;;;;;;;4.80;4.23;;;15.10;29.50;;;;;;4990543;28;20541;-68
2022/06/12 02:10:23;;;;;;;4.10;3.70;;;15.10;29.30;;;;;;4990203;28;20830;-68
2022/06/12 02:13:18;;;;;;;5.10;4.60;;;15.10;29.10;;;;;;4990608;28;20434;-68
2022/06/12 02:15:49;;;;;;;3.77;3.43;;;15.00;29.10;;;;;;4990010;28;20424;-68
2022/06/12 02:18:34;;;;;;;6.23;4.50;;;14.90;29.60;;;;;;4990035;28;20452;-68
2022/06/12 02:21:09;;;;;;;5.20;3.87;;;14.90;29.70;;;;;;4990438;28;20438;-68
2022/06/12 02:23:47;;;;;;;5.97;4.90;;;14.80;30.00;;;;;;4990346;28;20432;-68
2022/06/12 02:26:18;;;;;;;7.20;6.50;;;14.80;30.00;;;;;;4990263;28;20412;-68
2022/06/12 02:28:52;;;;;;;8.27;6.20;;;14.80;29.90;;;;;;4989983;28;20421;-68
2022/06/12 02:31:27;;;;;;;6.47;5.80;;;14.80;30.00;;;;;;4990184;28;20422;-68
2022/06/12 02:34:02;;;;;;;7.13;6.03;;;14.80;30.00;;;;;;4990017;28;20955;-67
2022/06/12 02:36:45;;;;;;;5.77;5.20;;;14.80;30.00;;;;;;4990160;28;20514;-68
2022/06/12 02:39:25;;;;;;;6.00;5.40;;;14.60;30.40;;;;;;4989862;28;20971;-68
2022/06/12 02:41:58;;;;;;;7.53;5.37;;;14.60;30.80;;;;;;4990080;28;20408;-68
2022/06/12 02:44:39;;;;;;;8.40;5.40;;;14.50;30.80;;;;;;4990284;28;20462;-67
2022/06/12 02:47:06;;;;;;;5.67;5.03;;;14.50;30.80;;;;;;4989987;28;20412;-67
2022/06/12 02:49:33;;;;;;;6.47;4.77;;;14.50;31.70;;;;;;4989662;28;20412;-67
2022/06/12 02:52:14;;;;;;;6.80;5.37;;;14.40;31.20;;;;;;4989855;28;20864;-67
2022/06/12 02:54:48;;;;;;;8.00;6.03;;;14.50;30.90;;;;;;4990011;28;20420;-69
2022/06/12 02:57:57;;;;;;;5.10;4.60;;;14.50;30.80;;;;;;4989810;28;20462;-68
2022/06/12 03:00:47;;;;;;;5.87;5.23;;;14.30;31.10;;;;;;4982340;28;20514;-68
2022/06/12 03:03:38;;;;;;;7.43;4.70;;;14.40;31.00;;;;;;4989770;28;20547;-68
2022/06/12 03:06:04;;;;;;;6.00;5.30;;;14.30;31.10;;;;;;4989729;28;20408;-68
2022/06/12 03:08:43;;;;;;;4.97;4.30;;;14.30;31.30;;;;;;4989405;28;20471;-69
2022/06/12 03:11:14;;;;;;;4.70;4.10;;;14.30;31.00;;;;;;4989855;28;20415;-68
2022/06/12 03:13:40;;;;;;;5.50;4.03;;;14.40;30.90;;;;;;4989564;28;20440;-67
2022/06/12 03:16:19;;;;;;;4.60;4.20;;;14.30;31.00;;;;;;4989601;28;20506;-67
2022/06/12 03:18:49;;;;;;;4.37;3.60;;;14.30;31.20;;;;;;4989283;28;20459;-67
2022/06/12 03:21:35;;;;;;;5.80;4.43;;;14.20;31.40;;;;;;4989329;28;20404;-67
2022/06/12 03:24:41;;;;;;;5.13;4.23;;;14.20;31.30;;;;;;4989606;28;20459;-67
2022/06/12 03:27:41;;;;;;;6.27;4.23;;;14.20;31.20;;;;;;4989467;28;20418;-69
2022/06/12 03:30:23;;;;;;;4.20;3.70;;;14.20;31.20;;;;;;4989314;28;20544;-67
2022/06/12 03:33:10;;;;;;;6.00;5.40;;;14.30;31.50;;;;;;4989739;28;20463;-67
2022/06/12 03:35:54;;;;;;;4.50;3.97;;;14.20;31.60;;;;;;4989338;28;20415;-66
2022/06/12 03:38:43;;;;;;;5.50;3.77;;;14.20;31.60;;;;;;4989133;28;20468;-67
2022/06/12 03:41:25;;;;;;;4.70;3.20;;;14.30;31.40;;;;;;4989436;28;20991;-67
2022/06/12 03:43:57;;;;;;;4.03;3.60;;;14.30;31.40;;;;;;4989366;28;20661;-67
2022/06/12 03:46:44;;;;;;;4.03;3.53;;;14.30;31.00;;;;;;4989328;28;20433;-67
2022/06/12 03:49:31;;;;;;;3.70;3.03;;;14.30;31.20;;;;;;4989066;28;20404;-67
2022/06/12 03:52:23;;;;;;;4.40;3.70;;;14.30;31.10;;;;;;4989047;28;20511;-67
2022/06/12 03:55:21;;;;;;;3.60;3.30;;;14.30;31.00;;;;;;4989297;28;20412;-67
2022/06/12 03:57:52;;;;;;;3.50;3.20;;;14.40;30.40;;;;;;4989100;28;21004;-67
2022/06/12 04:00:30;;;;;;;3.77;3.37;;;14.40;30.90;;;;;;4988908;28;20451;-67
2022/06/12 04:03:07;;;;;;;4.20;3.57;;;14.50;30.60;;;;;;4988957;28;20447;-67
2022/06/12 04:05:37;;;;;;;3.90;3.57;;;14.60;29.90;;;;;;4989156;28;20410;-67
2022/06/12 04:08:05;;;;;;;3.93;3.63;;;14.70;30.00;;;;;;4989026;28;20933;-67
2022/06/12 04:10:34;;;;;;;3.33;2.93;;;14.70;29.90;;;;;;4988897;28;20408;-67
2022/06/12 04:13:01;;;;;;;4.40;3.33;;;14.70;30.00;;;;;;4988995;28;20567;-68
2022/06/12 04:15:33;;;;;;;6.50;3.73;;;14.70;30.00;;;;;;4990390;28;20424;-67
2022/06/12 04:17:59;;;;;;;3.70;2.77;;;14.70;30.00;;;;;;4992316;28;20475;-67
2022/06/12 04:20:47;;;;;;;4.20;3.60;;;14.80;29.70;;;;;;4992467;28;20411;-67
2022/06/12 04:23:35;;;;;;;4.20;3.80;;;14.80;29.40;;;;;;4992219;28;20464;-68
2022/06/12 04:26:08;;;;;;;6.70;3.20;;;14.80;29.20;;;;;;4992195;28;20407;-67
2022/06/12 04:28:42;;;;;;;3.93;3.63;;;14.90;29.10;;;;;;4992028;28;20414;-67
2022/06/12 04:31:16;;;;;;;6.93;3.67;;;15.00;28.70;;;;;;4992219;28;20472;-67
2022/06/12 04:33:51;;;;;;;9.83;3.43;;;15.10;28.70;;;;;;4991952;28;20463;-67
2022/06/12 04:36:16;;;;;;;3.37;3.07;;;15.10;28.60;;;;;;4992000;28;20404;-67
2022/06/12 04:38:42;;;;;;;3.73;3.03;;;15.20;28.30;;;;;;4991949;28;20472;-67
2022/06/12 04:41:12;;;;;;;4.93;3.60;;;15.20;28.40;;;;;;4992122;28;20179;-67
2022/06/12 04:43:38;;;;;;;3.13;2.83;;;15.30;28.10;;;;;;4992130;28;20446;-67
2022/06/12 04:46:04;;;;;;;3.50;3.20;;;15.40;28.30;;;;;;4992097;28;20941;-67
2022/06/12 04:48:41;;;;;;;3.70;3.10;;;15.40;28.00;;;;;;4991800;28;20189;-67
2022/06/12 04:51:08;;;;;;;2.73;2.50;;;15.60;28.40;;;;;;4991882;28;20422;-67
2022/06/12 04:53:34;;;;;;;5.53;4.70;;;16.60;30.50;;;;;;4991957;28;20472;-68
2022/06/12 04:55:59;;;;;;;6.70;6.30;;;18.30;24.80;;;;;;4991948;28;20431;-67
2022/06/12 04:58:25;;;;;;;9.00;8.40;;;20.10;21.00;;;;;;4991519;28;20552;-67
2022/06/12 05:00:51;;;;;;;11.53;11.03;;;21.70;16.20;;;;;;4991871;28;20180;-68
2022/06/12 05:03:17;;;;;;;12.70;11.67;;;23.10;14.20;;;;;;4991883;28;20201;-68
2022/06/12 05:05:43;;;;;;;13.17;12.57;;;24.30;13.30;;;;;;4991655;28;20770;-68
2022/06/12 05:08:10;;;;;;;13.50;13.00;;;25.40;10.20;;;;;;4991481;28;20565;-68
2022/06/12 05:10:36;;;;;;;13.57;13.07;;;26.40;8.50;;;;;;4991628;28;20427;-67
2022/06/12 05:13:02;;;;;;;13.63;13.13;;;27.60;7.70;;;;;;4991710;28;20811;-67
2022/06/12 05:15:28;;;;;;;15.40;14.80;;;28.50;5.90;;;;;;4991495;28;20408;-68
2022/06/12 05:17:54;;;;;;;15.77;15.07;;;29.60;4.10;;;;;;4991175;28;20464;-68
2022/06/12 05:20:23;;;;;;;15.50;14.90;;;30.50;4.60;;;;;;4991188;28;20779;-67
2022/06/12 05:22:49;;;;;;;16.33;15.63;;;31.40;2.70;;;;;;4991571;28;20279;-68
2022/06/12 05:25:16;;;;;;;16.17;15.57;;;32.30;1.50;;;;;;4991263;28;20873;-68
2022/06/12 05:27:44;;;;;;;16.70;15.90;;;33.10;1.00;;;;;;4991410;28;20181;-67
2022/06/12 05:30:16;;;;;;;17.03;16.40;;;33.80;1.00;;;;;;4991050;28;20447;-68
2022/06/12 05:32:43;;;;;;;17.03;16.23;;;34.40;1.00;;;;;;4991256;28;20459;-68
2022/06/12 05:35:10;;;;;;;17.53;16.63;;;34.30;1.00;;;;;;4991533;28;20998;-68
2022/06/12 05:37:36;;;;;;;18.30;17.43;;;34.60;1.00;;;;;;4991144;28;20467;-68
2022/06/12 05:40:04;;;;;;;17.93;17.13;;;35.00;1.00;;;;;;4990769;28;20412;-68
2022/06/12 05:42:29;;;;;;;17.13;16.33;;;35.70;1.00;;;;;;4991263;28;20428;-68
2022/06/12 05:44:55;;;;;;;16.80;16.00;;;36.10;1.00;;;;;;4991071;28;20934;-68
2022/06/12 05:47:20;;;;;;;16.53;15.83;;;36.20;1.00;;;;;;4990958;28;20545;-68
2022/06/12 05:49:46;;;;;;;17.60;16.77;;;36.50;1.00;;;;;;4990708;28;20668;-68
2022/06/12 05:52:12;;;;;;;16.40;15.80;;;36.90;1.00;;;;;;4990852;28;20254;-68
2022/06/12 05:54:37;;;;;;;17.70;16.90;;;36.90;1.00;;;;;;4990868;28;20172;-68
2022/06/12 05:57:04;;;;;;;17.27;16.57;;;36.90;1.00;;;;;;4990862;28;20181;-67
2022/06/12 05:59:29;;;;;;;17.00;16.30;;;37.20;1.00;;;;;;4990395;28;20589;-67
2022/06/12 06:01:55;;;;;;;16.50;15.90;;;37.40;1.00;;;;;;4990781;28;20416;-67
2022/06/12 06:04:21;;;;;;;16.43;15.83;;;37.80;1.00;;;;;;4990807;28;20534;-67
2022/06/12 06:06:53;;;;;;;16.63;16.03;;;38.30;1.00;;;;;;4990640;28;20174;-67
2022/06/12 06:09:19;;;;;;;16.13;15.53;;;38.80;1.00;;;;;;4990444;28;20184;-68
2022/06/12 06:11:45;;;;;;;17.23;16.43;;;39.20;1.00;;;;;;4990541;28;20965;-67
2022/06/12 06:14:11;;;;;;;16.63;16.03;;;39.40;1.00;;;;;;4990434;28;20419;-68
2022/06/12 06:16:39;;;;;;;18.17;17.17;;;39.30;1.00;;;;;;4990415;28;20911;-67
2022/06/12 06:19:05;;;;;;;16.40;15.80;;;39.40;1.00;;;;;;4989985;28;20208;-67
2022/06/12 06:21:31;;;;;;;17.00;16.30;;;39.50;1.00;;;;;;4990379;28;20416;-68
2022/06/12 06:23:57;;;;;;;16.53;15.90;;;39.50;1.00;;;;;;4990262;28;20224;-68
2022/06/12 06:26:23;;;;;;;17.53;16.83;;;39.90;1.00;;;;;;4990253;28;20211;-68
2022/06/12 06:28:51;;;;;;;16.40;15.80;;;39.80;1.00;;;;;;4989932;28;20652;-67
2022/06/12 06:31:18;;;;;;;17.20;16.40;;;37.30;1.00;;;;;;4990359;28;20426;-68
2022/06/12 06:33:43;;;;;;;17.00;16.30;;;36.20;1.00;;;;;;4990067;28;20490;-67
2022/06/12 06:36:11;;;;;;;17.00;16.20;;;37.00;1.00;;;;;;4990191;28;20447;-68
2022/06/12 06:38:38;;;;;;;17.00;16.30;;;37.60;1.00;;;;;;4989407;28;20706;-68
2022/06/12 06:41:03;;;;;;;16.80;16.10;;;38.30;1.00;;;;;;4990182;28;20513;-68
2022/06/12 06:43:30;;;;;;;16.63;16.03;;;38.80;1.00;;;;;;4990097;28;20935;-68
2022/06/12 06:46:14;;;;;;;17.17;16.47;;;38.90;1.00;;;;;;4989998;28;20183;-68
2022/06/12 06:48:39;;;;;;;17.10;16.40;;;39.20;1.00;;;;;;4989807;28;20423;-68
2022/06/12 06:51:05;;;;;;;16.93;16.20;;;38.90;1.00;;;;;;4990070;28;20416;-68
2022/06/12 06:53:30;;;;;;;16.30;15.60;;;38.40;1.00;;;;;;4989826;28;20196;-68
2022/06/12 06:55:56;;;;;;;16.50;15.70;;;37.60;1.00;;;;;;4990104;28;20180;-67
2022/06/12 06:58:24;;;;;;;17.07;16.37;;;37.20;1.00;;;;;;4989604;28;20226;-68
2022/06/12 07:00:50;;;;;;;16.50;15.90;;;36.40;1.00;;;;;;4990007;28;20476;-67
2022/06/12 07:03:17;;;;;;;16.20;15.60;;;35.30;1.00;;;;;;4990201;28;20432;-67
2022/06/12 07:05:44;;;;;;;16.77;15.80;;;34.50;1.00;;;;;;4990228;28;20412;-67
2022/06/12 07:08:11;;;;;;;16.97;16.27;;;34.10;1.00;;;;;;4989394;28;20441;-67
2022/06/12 07:10:37;;;;;;;16.37;15.67;;;34.00;1.00;;;;;;4989628;28;20452;-67
2022/06/12 07:13:03;;;;;;;16.40;15.80;;;34.10;1.00;;;;;;4989648;28;20431;-66
2022/06/12 07:15:31;;;;;;;16.80;16.10;;;33.90;1.00;;;;;;4989747;28;20806;-67
2022/06/12 07:18:00;;;;;;;15.87;15.17;;;33.60;1.00;;;;;;4989217;28;20451;-68
2022/06/12 07:20:30;;;;;;;15.73;15.13;;;34.00;1.00;;;;;;4989620;28;20412;-68
2022/06/12 07:22:55;;;;;;;16.67;15.97;;;34.70;1.00;;;;;;4989361;28;20439;-68
2022/06/12 07:25:21;;;;;;;16.70;16.00;;;35.30;1.00;;;;;;4989542;28;20895;-68
2022/06/12 07:27:47;;;;;;;16.60;15.90;;;35.00;1.00;;;;;;4989433;28;20181;-67
2022/06/12 07:30:16;;;;;;;16.30;15.67;;;34.80;1.00;;;;;;4989411;28;20192;-67
2022/06/12 07:32:42;;;;;;;15.70;15.10;;;35.60;1.00;;;;;;4989122;28;20463;-67
2022/06/12 07:35:08;;;;;;;15.60;15.00;;;35.90;1.00;;;;;;4989507;28;20816;-67
2022/06/12 07:37:35;;;;;;;15.70;15.00;;;36.70;1.00;;;;;;4989233;28;20201;-67
2022/06/12 07:40:02;;;;;;;15.43;14.83;;;37.60;1.00;;;;;;4989059;28;20199;-67
2022/06/12 07:42:28;;;;;;;15.60;15.00;;;38.50;1.00;;;;;;4989467;28;20447;-68
2022/06/12 07:44:53;;;;;;;15.80;15.20;;;38.70;1.00;;;;;;4989279;28;20412;-68
2022/06/12 07:47:19;;;;;;;16.60;15.50;;;35.10;1.00;;;;;;4989076;28;20180;-67
2022/06/12 07:49:45;;;;;;;15.30;14.60;;;35.70;1.00;;;;;;4989474;28;20183;-67
2022/06/12 07:52:12;;;;;;;15.80;15.20;;;36.80;1.00;;;;;;4992650;28;20895;-68
2022/06/12 07:54:38;;;;;;;15.53;14.93;;;37.70;1.00;;;;;;4991310;28;20543;-68
2022/06/12 07:57:06;;;;;;;15.17;14.50;;;38.00;1.00;;;;;;4992672;28;20422;-68
2022/06/12 07:59:32;;;;;;;15.70;15.00;;;37.90;1.00;;;;;;4992417;28;20442;-67
2022/06/12 08:01:58;;;;;;;16.43;15.73;;;38.40;1.00;;;;;;4992383;28;20420;-67
2022/06/12 08:04:23;;;;;;;15.20;14.70;;;38.70;1.00;;;;;;4992539;28;20423;-67
2022/06/12 08:06:50;;;;;;;16.10;15.40;;;39.00;1.00;;;;;;4992471;28;20177;-68
2022/06/12 08:09:16;;;;;;;15.70;15.10;;;38.80;1.00;;;;;;4993388;28;20176;-68
2022/06/12 08:11:44;;;;;;;14.80;14.30;;;38.70;1.00;;;;;;4992461;28;20489;-67
2022/06/12 08:14:10;;;;;;;16.73;16.03;;;38.70;1.00;;;;;;4992367;28;20522;-68
2022/06/12 08:16:36;;;;;;;16.20;15.40;;;38.00;1.00;;;;;;4992162;28;20430;-68
2022/06/12 08:19:03;;;;;;;15.60;15.00;;;37.50;1.00;;;;;;4991822;28;20448;-67
2022/06/12 08:21:28;;;;;;;16.30;15.60;;;37.50;1.00;;;;;;4992210;28;20790;-68
2022/06/12 08:23:59;;;;;;;15.43;14.83;;;37.50;1.00;;;;;;4992030;28;20428;-68
2022/06/12 08:26:28;;;;;;;15.90;15.30;;;37.60;1.00;;;;;;4992712;28;20173;-68
2022/06/12 08:29:06;;;;;;;15.47;14.87;;;36.40;1.00;;;;;;4991982;28;20416;-69
2022/06/12 08:31:37;;;;;;;15.80;15.20;;;36.70;1.00;;;;;;4992100;28;20681;-69
2022/06/12 08:34:07;;;;;;;16.03;15.33;;;36.30;1.00;;;;;;4991747;28;20463;-68
2022/06/12 08:36:35;;;;;;;15.40;14.70;;;36.40;1.00;;;;;;4992068;28;20420;-68
2022/06/12 08:39:03;;;;;;;15.90;15.30;;;36.30;1.00;;;;;;4990715;28;20467;-68
2022/06/12 08:41:47;;;;;;;16.60;15.80;;;33.70;1.00;;;;;;4992145;28;20412;-67
2022/06/12 08:44:40;;;;;;;16.00;15.30;;;31.00;1.00;;;;;;4991741;28;20419;-67
2022/06/12 08:47:15;;;;;;;15.70;15.10;;;31.30;1.00;;;;;;4991948;28;20408;-68
2022/06/12 08:49:53;;;;;;;14.43;13.93;;;31.50;1.00;;;;;;4991654;28;20408;-68
2022/06/12 08:52:26;;;;;;;15.40;14.80;;;32.00;1.00;;;;;;4991698;28;20458;-68
2022/06/12 08:55:03;;;;;;;15.70;15.00;;;32.30;1.00;;;;;;4991672;28;20503;-68
2022/06/12 08:57:40;;;;;;;15.90;15.30;;;32.40;1.00;;;;;;4991701;28;20482;-67
2022/06/12 09:00:12;;;;;;;16.43;15.73;;;32.20;1.00;;;;;;4991327;28;20449;-68
2022/06/12 09:02:39;;;;;;;16.70;15.90;;;31.50;1.00;;;;;;4991393;28;20507;-68
2022/06/12 09:05:07;;;;;;;15.40;14.80;;;29.90;1.00;;;;;;4991552;28;20416;-68
2022/06/12 09:07:54;;;;;;;16.83;16.13;;;29.80;1.00;;;;;;4991591;28;20853;-67
2022/06/12 09:10:32;;;;;;;15.83;15.03;;;29.70;1.00;;;;;;4991350;28;20424;-69
2022/06/12 09:13:47;;;;;;;16.43;15.63;;;29.30;1.00;;;;;;4991471;28;20861;-67
2022/06/12 09:16:21;;;;;;;15.90;15.20;;;27.90;2.30;;;;;;4989073;28;20436;-67
2022/06/12 09:19:21;;;;;;;14.33;13.73;;;27.50;3.00;;;;;;4991250;28;20475;-67
2022/06/12 09:22:09;;;;;;;15.50;14.90;;;27.10;2.80;;;;;;4990982;28;20907;-68
2022/06/12 09:25:19;;;;;;;15.10;14.50;;;27.20;2.90;;;;;;4991121;28;20416;-68
2022/06/12 09:27:57;;;;;;;15.37;14.77;;;27.40;2.80;;;;;;4968135;28;20461;-68
2022/06/12 09:30:28;;;;;;;13.57;13.03;;;27.30;3.00;;;;;;4991055;28;20923;-68
2022/06/12 09:33:14;;;;;;;14.37;13.80;;;27.40;2.90;;;;;;5019712;23;20885;-70
2022/06/12 09:35:56;;;;;;;15.53;14.73;;;27.40;1.70;;;;;;5010573;28;20756;-68
2022/06/12 09:38:22;;;;;;;14.50;14.00;;;27.40;2.40;;;;;;5010138;28;20460;-69
2022/06/12 09:41:07;;;;;;;15.13;14.50;;;27.50;2.60;;;;;;5011298;28;20419;-68
2022/06/12 09:43:45;;;;;;;15.17;14.53;;;27.30;2.90;;;;;;5012045;28;20217;-69
2022/06/12 09:46:56;;;;;;;14.80;14.20;;;27.30;2.90;;;;;;5012758;28;20447;-70
2022/06/12 09:49:58;;;;;;;15.27;14.67;;;27.30;2.00;;;;;;5010866;28;20427;-68
2022/06/12 09:52:45;;;;;;;15.93;14.97;;;27.30;1.30;;;;;;5012901;28;20426;-70
2022/06/12 09:55:19;;;;;;;15.70;14.90;;;27.00;2.20;;;;;;5012144;28;20387;-67
2022/06/12 09:57:57;;;;;;;14.87;14.27;;;27.10;2.10;;;;;;5013158;28;21102;-71
2022/06/12 10:00:34;;;;;;;15.00;14.40;;;27.20;2.80;;;;;;5010864;28;20427;-68
2022/06/12 10:03:11;;;;;;;14.50;13.90;;;27.00;1.10;;;;;;5011146;28;20460;-69
2022/06/12 10:05:44;;;;;;;14.50;14.00;;;26.90;1.00;;;;;;5012545;28;20503;-69
2022/06/12 10:08:38;;;;;;;14.93;14.23;;;27.00;1.00;;;;;;5011480;28;20475;-69
2022/06/12 10:11:18;;;;;;;14.13;13.63;;;26.80;1.00;;;;;;5018043;28;20909;-69
2022/06/12 10:13:54;;;;;;;14.27;13.70;;;27.00;1.00;;;;;;5012666;28;20530;-69
2022/06/12 10:16:27;;;;;;;15.00;14.40;;;27.20;1.00;;;;;;5012447;28;20493;-69
2022/06/12 10:19:03;;;;;;;14.67;14.10;;;27.20;1.10;;;;;;5013504;28;20470;-68
2022/06/12 10:21:34;;;;;;;14.43;13.83;;;27.30;1.00;;;;;;5012972;28;20407;-68
2022/06/12 10:24:01;;;;;;;14.40;13.80;;;27.50;1.10;;;;;;5012440;28;20430;-68
2022/06/12 10:26:30;;;;;;;14.60;14.00;;;27.40;1.00;;;;;;5011354;28;20438;-68
2022/06/12 10:29:03;;;;;;;14.93;14.33;;;27.30;1.00;;;;;;5012979;28;20450;-69
2022/06/12 10:31:34;;;;;;;14.40;13.90;;;27.30;1.00;;;;;;5011564;28;20422;-69
2022/06/12 10:34:20;;;;;;;14.83;14.23;;;27.50;1.00;;;;;;5009684;28;20549;-69
2022/06/12 10:36:46;;;;;;;14.27;13.77;;;27.60;1.00;;;;;;5009781;28;20423;-69
2022/06/12 10:39:21;;;;;;;15.80;15.10;;;27.70;1.00;;;;;;5009214;28;20979;-69
2022/06/12 10:42:02;;;;;;;14.90;14.20;;;27.70;1.00;;;;;;5008246;28;20317;-69
2022/06/12 10:44:41;;;;;;;15.00;14.20;;;27.80;1.00;;;;;;5009427;28;20423;-69
2022/06/12 10:47:17;;;;;;;15.90;15.00;;;27.80;1.00;;;;;;5009399;28;20457;-69
2022/06/12 10:49:44;;;;;;;14.40;13.90;;;27.80;1.00;;;;;;5008117;28;20426;-69
2022/06/12 10:52:22;;;;;;;14.80;14.20;;;27.50;1.00;;;;;;5009805;28;20970;-69
2022/06/12 10:54:50;;;;;;;15.10;14.30;;;27.60;1.00;;;;;;5009512;28;20423;-69
2022/06/12 10:57:34;;;;;;;15.07;14.47;;;27.40;1.00;;;;;;5010399;28;20411;-69
2022/06/12 11:00:08;;;;;;;14.67;14.17;;;27.40;1.00;;;;;;5009558;28;20514;-69
2022/06/12 11:02:53;;;;;;;14.30;13.67;;;27.60;1.00;;;;;;5009444;28;20430;-69
2022/06/12 11:05:24;;;;;;;14.03;13.53;;;27.50;1.00;;;;;;5009328;28;20443;-69
2022/06/12 11:08:28;;;;;;;14.70;14.10;;;27.60;1.00;;;;;;5009286;28;20431;-69
2022/06/12 11:11:12;;;;;;;13.70;13.20;;;27.80;1.00;;;;;;5008034;28;20925;-69
2022/06/12 11:13:56;;;;;;;14.50;14.00;;;28.00;1.00;;;;;;5009559;28;20476;-69
2022/06/12 11:16:41;;;;;;;14.37;13.77;;;28.10;1.00;;;;;;5009525;28;20395;-69
2022/06/12 11:19:55;;;;;;;14.70;14.10;;;28.20;1.00;;;;;;5009540;28;20454;-69
2022/06/12 11:22:33;;;;;;;15.10;14.50;;;28.20;1.00;;;;;;4956885;28;20448;-69
2022/06/12 11:25:20;;;;;;;15.00;14.40;;;28.10;1.00;;;;;;5012136;28;20454;-69
2022/06/12 11:27:52;;;;;;;15.03;14.43;;;28.20;1.00;;;;;;5013279;28;20513;-69
2022/06/12 11:30:41;;;;;;;14.40;13.80;;;28.30;1.00;;;;;;5012547;28;20422;-68
2022/06/12 11:33:43;;;;;;;15.53;14.93;;;28.30;1.00;;;;;;5012598;28;20886;-69
2022/06/12 11:36:24;;;;;;;14.97;14.47;;;28.40;1.00;;;;;;5032968;28;20422;-70
2022/06/12 11:39:20;;;;;;;15.27;14.70;;;28.40;1.00;;;;;;5012372;28;20450;-69
2022/06/12 11:42:00;;;;;;;14.77;14.03;;;28.40;1.00;;;;;;5012594;28;20967;-70
2022/06/12 11:44:40;;;;;;;15.40;14.70;;;28.30;1.00;;;;;;5012721;28;20415;-70
2022/06/12 11:47:20;;;;;;;15.10;14.50;;;28.50;1.00;;;;;;5013837;28;20415;-70
2022/06/12 11:50:07;;;;;;;15.27;14.57;;;28.50;1.00;;;;;;5012134;28;20410;-69
2022/06/12 11:52:41;;;;;;;14.60;14.10;;;28.60;1.00;;;;;;5012331;28;20903;-70
2022/06/12 11:55:18;;;;;;;15.00;14.40;;;28.70;1.00;;;;;;5012313;28;20406;-70
2022/06/12 11:58:06;;;;;;;14.70;14.10;;;28.70;1.00;;;;;;5012283;28;20884;-70
2022/06/12 12:01:10;;;;;;;15.07;14.40;;;28.80;1.00;;;;;;5012445;28;20444;-70
2022/06/12 12:03:53;;;;;;;13.97;13.47;;;28.80;1.00;;;;;;5010806;28;20442;-69
2022/06/12 12:06:37;;;;;;;14.37;13.80;;;28.90;1.00;;;;;;5012087;28;20410;-70
2022/06/12 12:09:18;;;;;;;14.47;13.87;;;29.00;1.00;;;;;;5011901;28;20411;-69
2022/06/12 12:12:00;;;;;;;14.67;13.97;;;29.10;1.00;;;;;;5010811;28;20479;-69
2022/06/12 12:14:31;;;;;;;15.13;14.53;;;29.10;1.00;;;;;;5011861;28;20798;-69
2022/06/12 12:17:07;;;;;;;13.90;13.40;;;29.00;1.00;;;;;;5012038;28;20411;-68
2022/06/12 12:19:40;;;;;;;14.77;14.17;;;29.10;1.00;;;;;;5011507;28;20493;-69
2022/06/12 12:22:24;;;;;;;14.40;13.90;;;29.20;1.00;;;;;;5011755;28;20423;-70
2022/06/12 12:25:12;;;;;;;15.60;14.90;;;29.20;1.00;;;;;;5011627;28;20788;-69
2022/06/12 12:27:48;;;;;;;14.67;14.10;;;29.30;1.00;;;;;;5011873;28;20925;-70
2022/06/12 12:30:21;;;;;;;14.30;13.80;;;29.40;1.00;;;;;;5010188;28;20827;-69
2022/06/12 12:32:53;;;;;;;14.33;13.83;;;29.30;1.00;;;;;;5011634;28;20448;-70
2022/06/12 12:41:11;;;;;;;14.97;14.27;;;29.60;1.00;;;;;;5011822;28;20422;-70
2022/06/12 12:43:54;;;;;;;15.07;14.57;;;29.60;1.00;;;;;;5011547;28;20454;-69
2022/06/12 12:46:23;;;;;;;15.27;14.67;;;29.60;1.00;;;;;;5011667;28;20499;-70
2022/06/12 12:48:53;;;;;;;14.87;14.27;;;29.70;1.00;;;;;;5011296;28;20422;-69
2022/06/12 12:51:29;;;;;;;15.10;14.50;;;29.80;1.00;;;;;;5011725;28;20860;-69
2022/06/12 12:54:07;;;;;;;14.93;14.30;;;29.90;1.00;;;;;;5011384;28;20818;-69
2022/06/12 12:56:34;;;;;;;15.50;14.90;;;29.80;1.00;;;;;;5011381;28;20415;-69
2022/06/12 12:59:08;;;;;;;15.93;15.30;;;29.90;1.00;;;;;;5011258;28;20578;-69
2022/06/12 13:01:47;;;;;;;14.87;14.37;;;30.00;1.00;;;;;;5011297;28;20422;-69
2022/06/12 13:04:33;;;;;;;15.53;14.73;;;30.00;1.00;;;;;;5011195;28;20802;-68
2022/06/12 13:07:13;;;;;;;15.30;14.70;;;30.10;1.00;;;;;;5010013;28;20848;-69
2022/06/12 13:10:17;;;;;;;14.80;14.30;;;30.10;1.00;;;;;;5010893;28;20407;-70
2022/06/12 13:13:07;;;;;;;15.53;14.93;;;30.10;1.00;;;;;;5011130;28;20435;-70
2022/06/12 13:15:49;;;;;;;15.70;15.10;;;30.00;1.00;;;;;;5011081;28;20490;-70
2022/06/12 13:18:52;;;;;;;15.10;14.50;;;30.10;1.00;;;;;;5010757;28;20450;-68
2022/06/12 13:21:30;;;;;;;16.27;15.30;;;30.10;1.00;;;;;;5010917;28;20862;-69
2022/06/12 13:24:14;;;;;;;14.37;13.87;;;30.10;1.00;;;;;;5009751;28;20434;-69
2022/06/12 13:26:42;;;;;;;15.20;14.60;;;30.20;1.00;;;;;;5009725;28;20460;-70
2022/06/12 13:29:19;;;;;;;16.27;15.60;;;30.10;1.00;;;;;;5010617;28;20494;-68